sensor_id;sensor_type;location;lat;lon;timestamp;P1;P2;P0
72467;PMS3003;60626;43.582;1.470;2023-01-30T00:01:18;15.00;13.75;10.50
72467;PMS3003;60626;43.582;1.470;2023-01-30T00:03:46;15.25;15.25;12.00
72467;PMS3003;60626;43.582;1.470;2023-01-30T00:06:12;20.50;20.50;13.25
72467;PMS3003;60626;43.582;1.470;2023-01-30T00:08:39;17.50;16.25;11.75
72467;PMS3003;60626;43.582;1.470;2023-01-30T00:11:07;13.00;13.00;9.25
72467;PMS3003;60626;43.582;1.470;2023-01-30T00:13:36;16.25;15.75;11.25
72467;PMS3003;60626;43.582;1.470;2023-01-30T00:16:03;16.00;16.00;13.00
72467;PMS3003;60626;43.582;1.470;2023-01-30T00:18:30;15.75;15.75;13.00
72467;PMS3003;60626;43.582;1.470;2023-01-30T00:20:57;21.25;18.25;13.75
72467;PMS3003;60626;43.582;1.470;2023-01-30T00:23:24;17.25;16.25;11.75
72467;PMS3003;60626;43.582;1.470;2023-01-30T00:25:52;13.25;13.25;9.00
72467;PMS3003;60626;43.582;1.470;2023-01-30T00:28:19;17.50;16.00;13.25
72467;PMS3003;60626;43.582;1.470;2023-01-30T00:30:49;20.50;16.75;12.00
72467;PMS3003;60626;43.582;1.470;2023-01-30T00:33:17;17.00;17.00;13.00
72467;PMS3003;60626;43.582;1.470;2023-01-30T00:35:48;17.25;16.50;12.00
72467;PMS3003;60626;43.582;1.470;2023-01-30T00:38:16;16.25;16.25;11.25
72467;PMS3003;60626;43.582;1.470;2023-01-30T00:40:43;15.75;14.00;10.25
72467;PMS3003;60626;43.582;1.470;2023-01-30T00:43:11;19.25;17.50;12.25
72467;PMS3003;60626;43.582;1.470;2023-01-30T00:45:57;17.25;17.25;13.50
72467;PMS3003;60626;43.582;1.470;2023-01-30T00:48:43;20.25;17.00;13.50
72467;PMS3003;60626;43.582;1.470;2023-01-30T00:51:10;15.00;13.00;9.00
72467;PMS3003;60626;43.582;1.470;2023-01-30T00:53:37;21.00;19.25;12.00
72467;PMS3003;60626;43.582;1.470;2023-01-30T00:56:03;26.75;20.50;15.00
72467;PMS3003;60626;43.582;1.470;2023-01-30T00:58:30;21.75;18.50;11.25
72467;PMS3003;60626;43.582;1.470;2023-01-30T01:00:57;23.75;19.00;13.50
72467;PMS3003;60626;43.582;1.470;2023-01-30T01:03:23;20.50;19.25;13.00
72467;PMS3003;60626;43.582;1.470;2023-01-30T01:05:50;21.00;20.50;13.75
72467;PMS3003;60626;43.582;1.470;2023-01-30T01:08:17;24.00;21.00;13.00
72467;PMS3003;60626;43.582;1.470;2023-01-30T01:10:43;17.50;15.75;12.00
72467;PMS3003;60626;43.582;1.470;2023-01-30T01:13:10;25.50;19.50;13.75
72467;PMS3003;60626;43.582;1.470;2023-01-30T01:15:37;19.50;17.75;12.00
72467;PMS3003;60626;43.582;1.470;2023-01-30T01:18:03;18.25;18.25;13.00
72467;PMS3003;60626;43.582;1.470;2023-01-30T01:20:30;21.50;19.00;13.50
72467;PMS3003;60626;43.582;1.470;2023-01-30T01:22:57;22.50;22.50;15.50
72467;PMS3003;60626;43.582;1.470;2023-01-30T01:25:23;21.00;21.00;13.50
72467;PMS3003;60626;43.582;1.470;2023-01-30T01:27:51;22.75;21.75;15.25
72467;PMS3003;60626;43.582;1.470;2023-01-30T01:30:19;24.50;19.00;14.00
72467;PMS3003;60626;43.582;1.470;2023-01-30T01:32:46;28.50;24.75;15.25
72467;PMS3003;60626;43.582;1.470;2023-01-30T01:35:12;25.25;19.50;14.00
72467;PMS3003;60626;43.582;1.470;2023-01-30T01:37:39;28.00;20.50;14.25
72467;PMS3003;60626;43.582;1.470;2023-01-30T01:40:06;24.25;21.75;14.75
72467;PMS3003;60626;43.582;1.470;2023-01-30T01:43:18;22.75;21.25;16.00
72467;PMS3003;60626;43.582;1.470;2023-01-30T01:45:47;23.25;23.00;15.75
72467;PMS3003;60626;43.582;1.470;2023-01-30T01:53:21;24.00;21.50;14.75
72467;PMS3003;60626;43.582;1.470;2023-01-30T01:55:53;22.75;19.25;13.00
72467;PMS3003;60626;43.582;1.470;2023-01-30T01:58:34;19.25;17.75;14.25
72467;PMS3003;60626;43.582;1.470;2023-01-30T02:01:05;24.00;21.75;15.25
72467;PMS3003;60626;43.582;1.470;2023-01-30T02:03:34;25.50;24.00;15.25
72467;PMS3003;60626;43.582;1.470;2023-01-30T02:06:05;21.25;19.25;12.75
72467;PMS3003;60626;43.582;1.470;2023-01-30T02:08:39;20.50;20.50;15.00
72467;PMS3003;60626;43.582;1.470;2023-01-30T02:11:11;24.25;20.00;13.00
72467;PMS3003;60626;43.582;1.470;2023-01-30T02:13:45;24.25;24.00;13.00
72467;PMS3003;60626;43.582;1.470;2023-01-30T02:16:12;22.25;20.75;12.75
72467;PMS3003;60626;43.582;1.470;2023-01-30T02:18:40;19.75;18.00;13.75
72467;PMS3003;60626;43.582;1.470;2023-01-30T02:32:45;15.50;15.50;9.50
72467;PMS3003;60626;43.582;1.470;2023-01-30T02:38:08;18.00;18.00;10.50
72467;PMS3003;60626;43.582;1.470;2023-01-30T02:43:45;17.25;17.25;12.00
72467;PMS3003;60626;43.582;1.470;2023-01-30T02:46:31;18.75;16.25;11.75
72467;PMS3003;60626;43.582;1.470;2023-01-30T02:49:11;16.75;16.75;13.00
72467;PMS3003;60626;43.582;1.470;2023-01-30T02:51:42;16.50;16.50;11.75
72467;PMS3003;60626;43.582;1.470;2023-01-30T02:54:11;17.00;17.00;13.00
72467;PMS3003;60626;43.582;1.470;2023-01-30T02:56:42;21.25;19.75;13.75
72467;PMS3003;60626;43.582;1.470;2023-01-30T02:59:11;18.25;18.25;13.00
72467;PMS3003;60626;43.582;1.470;2023-01-30T03:04:25;19.00;17.25;12.50
72467;PMS3003;60626;43.582;1.470;2023-01-30T03:10:21;17.25;16.75;11.50
72467;PMS3003;60626;43.582;1.470;2023-01-30T03:12:34;19.00;17.50;12.75
72467;PMS3003;60626;43.582;1.470;2023-01-30T03:18:10;17.00;15.00;10.25
72467;PMS3003;60626;43.582;1.470;2023-01-30T03:20:37;15.75;15.75;11.25
72467;PMS3003;60626;43.582;1.470;2023-01-30T03:23:06;14.00;14.00;9.50
72467;PMS3003;60626;43.582;1.470;2023-01-30T03:25:34;15.50;15.00;11.50
72467;PMS3003;60626;43.582;1.470;2023-01-30T03:28:04;15.25;13.75;9.25
72467;PMS3003;60626;43.582;1.470;2023-01-30T03:30:32;16.25;16.25;11.00
72467;PMS3003;60626;43.582;1.470;2023-01-30T03:32:59;18.25;15.25;10.25
72467;PMS3003;60626;43.582;1.470;2023-01-30T03:35:25;13.75;12.75;8.00
72467;PMS3003;60626;43.582;1.470;2023-01-30T03:37:52;16.25;15.25;10.25
72467;PMS3003;60626;43.582;1.470;2023-01-30T03:40:18;15.00;15.00;11.50
72467;PMS3003;60626;43.582;1.470;2023-01-30T03:42:45;18.50;15.50;11.00
72467;PMS3003;60626;43.582;1.470;2023-01-30T03:45:12;17.00;15.50;12.00
72467;PMS3003;60626;43.582;1.470;2023-01-30T03:47:38;19.75;18.00;13.25
72467;PMS3003;60626;43.582;1.470;2023-01-30T03:50:05;20.75;17.50;10.75
72467;PMS3003;60626;43.582;1.470;2023-01-30T03:52:35;16.75;15.00;12.00
72467;PMS3003;60626;43.582;1.470;2023-01-30T03:55:02;15.00;13.50;12.00
72467;PMS3003;60626;43.582;1.470;2023-01-30T03:57:29;17.50;14.75;9.75
72467;PMS3003;60626;43.582;1.470;2023-01-30T03:59:56;16.25;14.00;9.75
72467;PMS3003;60626;43.582;1.470;2023-01-30T04:02:22;16.75;15.00;9.00
72467;PMS3003;60626;43.582;1.470;2023-01-30T04:04:51;12.25;12.25;8.00
72467;PMS3003;60626;43.582;1.470;2023-01-30T04:07:18;16.50;16.00;10.25
72467;PMS3003;60626;43.582;1.470;2023-01-30T04:09:45;15.50;15.00;10.25
72467;PMS3003;60626;43.582;1.470;2023-01-30T04:12:12;15.50;14.25;10.50
72467;PMS3003;60626;43.582;1.470;2023-01-30T04:14:38;13.50;13.50;8.00
72467;PMS3003;60626;43.582;1.470;2023-01-30T04:17:05;15.75;14.00;9.25
72467;PMS3003;60626;43.582;1.470;2023-01-30T04:19:32;17.00;15.00;10.25
72467;PMS3003;60626;43.582;1.470;2023-01-30T04:21:58;15.00;13.00;8.00
72467;PMS3003;60626;43.582;1.470;2023-01-30T04:24:25;12.50;10.50;8.00
72467;PMS3003;60626;43.582;1.470;2023-01-30T04:26:52;13.25;12.00;8.00
72467;PMS3003;60626;43.582;1.470;2023-01-30T04:29:18;11.75;11.75;8.75
72467;PMS3003;60626;43.582;1.470;2023-01-30T04:31:45;12.75;11.25;7.00
72467;PMS3003;60626;43.582;1.470;2023-01-30T04:34:11;11.00;10.25;7.50
72467;PMS3003;60626;43.582;1.470;2023-01-30T04:36:38;9.50;9.50;7.50
72467;PMS3003;60626;43.582;1.470;2023-01-30T04:39:05;12.00;10.00;8.00
72467;PMS3003;60626;43.582;1.470;2023-01-30T04:41:31;15.50;12.00;8.75
72467;PMS3003;60626;43.582;1.470;2023-01-30T04:43:58;8.50;8.50;7.25
72467;PMS3003;60626;43.582;1.470;2023-01-30T04:46:24;11.50;9.25;6.75
72467;PMS3003;60626;43.582;1.470;2023-01-30T04:48:51;12.50;10.25;7.00
72467;PMS3003;60626;43.582;1.470;2023-01-30T04:51:18;9.25;9.25;6.00
72467;PMS3003;60626;43.582;1.470;2023-01-30T04:53:44;12.25;12.25;7.00
72467;PMS3003;60626;43.582;1.470;2023-01-30T04:56:11;10.25;9.00;7.00
72467;PMS3003;60626;43.582;1.470;2023-01-30T04:58:38;12.00;8.00;6.25
72467;PMS3003;60626;43.582;1.470;2023-01-30T05:01:38;10.00;10.00;7.00
72467;PMS3003;60626;43.582;1.470;2023-01-30T05:03:59;9.50;9.50;7.00
72467;PMS3003;60626;43.582;1.470;2023-01-30T05:06:26;9.50;9.50;8.00
72467;PMS3003;60626;43.582;1.470;2023-01-30T05:08:54;7.75;7.50;6.00
72467;PMS3003;60626;43.582;1.470;2023-01-30T05:11:22;10.25;8.00;6.00
72467;PMS3003;60626;43.582;1.470;2023-01-30T05:13:50;9.50;8.00;6.50
72467;PMS3003;60626;43.582;1.470;2023-01-30T05:16:17;8.50;8.50;5.75
72467;PMS3003;60626;43.582;1.470;2023-01-30T05:18:44;16.25;12.00;7.75
72467;PMS3003;60626;43.582;1.470;2023-01-30T05:21:12;12.00;12.00;8.00
72467;PMS3003;60626;43.582;1.470;2023-01-30T05:23:40;8.25;8.25;6.25
72467;PMS3003;60626;43.582;1.470;2023-01-30T05:26:07;12.75;10.75;6.50
72467;PMS3003;60626;43.582;1.470;2023-01-30T05:28:34;12.00;8.25;7.00
72467;PMS3003;60626;43.582;1.470;2023-01-30T05:33:29;12.00;12.00;8.00
72467;PMS3003;60626;43.582;1.470;2023-01-30T05:35:55;8.00;8.00;6.00
72467;PMS3003;60626;43.582;1.470;2023-01-30T05:38:23;11.00;10.00;7.00
72467;PMS3003;60626;43.582;1.470;2023-01-30T05:40:59;13.00;11.00;8.25
72467;PMS3003;60626;43.582;1.470;2023-01-30T05:43:27;9.00;9.00;6.75
72467;PMS3003;60626;43.582;1.470;2023-01-30T05:45:56;12.00;12.00;9.25
72467;PMS3003;60626;43.582;1.470;2023-01-30T05:48:24;13.00;12.25;8.50
72467;PMS3003;60626;43.582;1.470;2023-01-30T05:50:52;12.25;9.75;7.00
72467;PMS3003;60626;43.582;1.470;2023-01-30T05:53:20;15.75;13.00;9.00
72467;PMS3003;60626;43.582;1.470;2023-01-30T05:56:01;11.25;11.00;8.00
72467;PMS3003;60626;43.582;1.470;2023-01-30T05:58:29;16.00;11.25;7.00
72467;PMS3003;60626;43.582;1.470;2023-01-30T06:01:00;10.75;9.50;8.00
72467;PMS3003;60626;43.582;1.470;2023-01-30T06:03:28;12.75;12.75;8.75
72467;PMS3003;60626;43.582;1.470;2023-01-30T06:05:55;10.00;10.00;5.00
72467;PMS3003;60626;43.582;1.470;2023-01-30T06:08:22;11.25;10.75;7.00
72467;PMS3003;60626;43.582;1.470;2023-01-30T06:10:49;8.25;8.25;7.00
72467;PMS3003;60626;43.582;1.470;2023-01-30T06:13:15;12.50;12.50;8.25
72467;PMS3003;60626;43.582;1.470;2023-01-30T06:15:42;23.75;23.75;17.25
72467;PMS3003;60626;43.582;1.470;2023-01-30T06:18:09;14.75;14.75;10.25
72467;PMS3003;60626;43.582;1.470;2023-01-30T06:20:37;13.00;13.00;10.25
72467;PMS3003;60626;43.582;1.470;2023-01-30T06:23:03;10.25;10.25;7.50
72467;PMS3003;60626;43.582;1.470;2023-01-30T06:25:30;13.50;10.25;8.00
72467;PMS3003;60626;43.582;1.470;2023-01-30T06:27:57;15.25;14.00;9.25
72467;PMS3003;60626;43.582;1.470;2023-01-30T06:30:23;13.00;13.00;9.25
72467;PMS3003;60626;43.582;1.470;2023-01-30T06:32:50;13.00;13.00;9.25
72467;PMS3003;60626;43.582;1.470;2023-01-30T06:35:16;14.00;14.00;10.00
72467;PMS3003;60626;43.582;1.470;2023-01-30T06:37:44;14.25;12.75;8.25
72467;PMS3003;60626;43.582;1.470;2023-01-30T06:40:11;16.25;12.00;8.00
72467;PMS3003;60626;43.582;1.470;2023-01-30T06:42:38;14.50;11.50;8.25
72467;PMS3003;60626;43.582;1.470;2023-01-30T06:45:09;15.50;14.00;9.25
72467;PMS3003;60626;43.582;1.470;2023-01-30T06:47:43;12.75;12.00;8.25
72467;PMS3003;60626;43.582;1.470;2023-01-30T06:50:11;13.50;12.75;8.00
72467;PMS3003;60626;43.582;1.470;2023-01-30T06:52:41;15.00;13.50;9.25
72467;PMS3003;60626;43.582;1.470;2023-01-30T06:55:12;13.75;12.50;9.25
72467;PMS3003;60626;43.582;1.470;2023-01-30T06:57:42;14.75;13.25;10.50
72467;PMS3003;60626;43.582;1.470;2023-01-30T07:00:11;17.25;14.75;10.75
72467;PMS3003;60626;43.582;1.470;2023-01-30T07:02:39;13.25;13.25;9.75
72467;PMS3003;60626;43.582;1.470;2023-01-30T07:05:07;16.00;14.00;12.00
72467;PMS3003;60626;43.582;1.470;2023-01-30T07:07:34;21.75;17.75;13.00
72467;PMS3003;60626;43.582;1.470;2023-01-30T07:10:02;17.25;16.50;11.50
72467;PMS3003;60626;43.582;1.470;2023-01-30T07:12:34;20.00;17.00;12.25
72467;PMS3003;60626;43.582;1.470;2023-01-30T07:15:02;20.50;20.50;13.25
72467;PMS3003;60626;43.582;1.470;2023-01-30T07:17:30;21.50;16.25;12.75
72467;PMS3003;60626;43.582;1.470;2023-01-30T07:19:57;15.25;15.25;11.50
72467;PMS3003;60626;43.582;1.470;2023-01-30T07:22:24;16.50;16.50;12.00
72467;PMS3003;60626;43.582;1.470;2023-01-30T07:24:50;16.50;13.50;10.25
72467;PMS3003;60626;43.582;1.470;2023-01-30T07:27:17;17.50;14.25;10.00
72467;PMS3003;60626;43.582;1.470;2023-01-30T07:29:43;18.00;15.25;12.00
72467;PMS3003;60626;43.582;1.470;2023-01-30T07:32:15;13.00;13.00;10.00
72467;PMS3003;60626;43.582;1.470;2023-01-30T07:34:43;14.00;13.25;10.00
72467;PMS3003;60626;43.582;1.470;2023-01-30T07:37:10;15.00;15.00;10.00
72467;PMS3003;60626;43.582;1.470;2023-01-30T07:39:37;16.00;14.25;11.00
72467;PMS3003;60626;43.582;1.470;2023-01-30T07:42:04;14.00;14.00;10.75
72467;PMS3003;60626;43.582;1.470;2023-01-30T07:44:31;12.75;12.00;8.00
72467;PMS3003;60626;43.582;1.470;2023-01-30T07:46:59;15.25;14.25;10.50
72467;PMS3003;60626;43.582;1.470;2023-01-30T07:49:26;16.00;16.00;11.25
72467;PMS3003;60626;43.582;1.470;2023-01-30T07:51:53;10.25;10.25;6.75
72467;PMS3003;60626;43.582;1.470;2023-01-30T07:54:19;15.00;14.00;9.25
72467;PMS3003;60626;43.582;1.470;2023-01-30T07:56:46;18.00;15.25;9.00
72467;PMS3003;60626;43.582;1.470;2023-01-30T07:59:13;14.25;14.25;10.00
72467;PMS3003;60626;43.582;1.470;2023-01-30T08:01:39;17.75;13.25;9.75
72467;PMS3003;60626;43.582;1.470;2023-01-30T08:04:06;14.50;14.25;10.75
72467;PMS3003;60626;43.582;1.470;2023-01-30T08:06:32;14.00;12.75;9.00
72467;PMS3003;60626;43.582;1.470;2023-01-30T08:09:04;13.75;13.75;9.25
72467;PMS3003;60626;43.582;1.470;2023-01-30T08:11:32;15.75;15.00;11.00
72467;PMS3003;60626;43.582;1.470;2023-01-30T08:13:59;17.50;14.75;9.25
72467;PMS3003;60626;43.582;1.470;2023-01-30T08:16:25;13.75;12.75;8.50
72467;PMS3003;60626;43.582;1.470;2023-01-30T08:18:52;21.75;15.75;10.75
72467;PMS3003;60626;43.582;1.470;2023-01-30T08:21:19;15.75;15.00;11.00
72467;PMS3003;60626;43.582;1.470;2023-01-30T08:23:46;16.75;13.50;8.75
72467;PMS3003;60626;43.582;1.470;2023-01-30T08:26:12;15.25;13.75;9.25
72467;PMS3003;60626;43.582;1.470;2023-01-30T08:28:39;20.75;16.50;12.00
72467;PMS3003;60626;43.582;1.470;2023-01-30T08:31:12;20.25;16.50;11.25
72467;PMS3003;60626;43.582;1.470;2023-01-30T08:33:40;16.25;16.25;11.75
72467;PMS3003;60626;43.582;1.470;2023-01-30T08:36:07;13.50;13.50;9.50
72467;PMS3003;60626;43.582;1.470;2023-01-30T08:38:33;21.75;17.00;11.00
72467;PMS3003;60626;43.582;1.470;2023-01-30T08:41:03;16.25;16.25;13.00
72467;PMS3003;60626;43.582;1.470;2023-01-30T08:43:30;17.00;16.00;10.50
72467;PMS3003;60626;43.582;1.470;2023-01-30T08:45:57;16.75;13.50;10.25
72467;PMS3003;60626;43.582;1.470;2023-01-30T08:48:23;18.50;17.25;12.00
72467;PMS3003;60626;43.582;1.470;2023-01-30T08:50:53;16.00;15.00;11.75
72467;PMS3003;60626;43.582;1.470;2023-01-30T08:53:21;20.00;17.00;12.25
72467;PMS3003;60626;43.582;1.470;2023-01-30T08:55:52;21.00;16.25;12.50
72467;PMS3003;60626;43.582;1.470;2023-01-30T08:58:19;15.75;14.00;9.75
72467;PMS3003;60626;43.582;1.470;2023-01-30T09:00:46;15.50;13.75;11.50
72467;PMS3003;60626;43.582;1.470;2023-01-30T09:03:15;14.75;14.75;12.50
72467;PMS3003;60626;43.582;1.470;2023-01-30T09:05:43;20.25;18.00;11.25
72467;PMS3003;60626;43.582;1.470;2023-01-30T09:08:11;17.25;14.25;10.75
72467;PMS3003;60626;43.582;1.470;2023-01-30T09:10:38;21.75;16.00;11.75
72467;PMS3003;60626;43.582;1.470;2023-01-30T09:13:07;17.00;17.00;13.00
72467;PMS3003;60626;43.582;1.470;2023-01-30T09:15:35;19.50;18.25;14.00
72467;PMS3003;60626;43.582;1.470;2023-01-30T09:18:02;16.75;14.25;9.50
72467;PMS3003;60626;43.582;1.470;2023-01-30T09:20:30;17.50;17.50;14.00
72467;PMS3003;60626;43.582;1.470;2023-01-30T09:22:56;14.75;13.75;9.25
72467;PMS3003;60626;43.582;1.470;2023-01-30T09:25:23;18.00;15.00;9.50
72467;PMS3003;60626;43.582;1.470;2023-01-30T09:27:50;15.00;13.50;9.75
72467;PMS3003;60626;43.582;1.470;2023-01-30T09:30:16;20.75;14.50;10.00
72467;PMS3003;60626;43.582;1.470;2023-01-30T09:32:44;16.25;16.25;11.00
72467;PMS3003;60626;43.582;1.470;2023-01-30T09:35:11;19.00;15.75;11.00
72467;PMS3003;60626;43.582;1.470;2023-01-30T09:37:38;16.25;15.00;11.25
72467;PMS3003;60626;43.582;1.470;2023-01-30T09:40:13;16.25;11.25;9.00
72467;PMS3003;60626;43.582;1.470;2023-01-30T09:56:41;20.00;15.50;10.50
72467;PMS3003;60626;43.582;1.470;2023-01-30T09:59:16;15.25;12.75;8.00
72467;PMS3003;60626;43.582;1.470;2023-01-30T10:04:33;16.00;13.50;10.00
72467;PMS3003;60626;43.582;1.470;2023-01-30T10:07:23;13.00;12.75;8.25
72467;PMS3003;60626;43.582;1.470;2023-01-30T10:13:10;15.00;15.00;11.00
72467;PMS3003;60626;43.582;1.470;2023-01-30T10:15:57;13.25;11.25;9.00
72467;PMS3003;60626;43.582;1.470;2023-01-30T10:19:10;13.00;12.00;8.00
72467;PMS3003;60626;43.582;1.470;2023-01-30T10:22:05;17.00;16.00;12.00
72467;PMS3003;60626;43.582;1.470;2023-01-30T10:27:57;15.00;12.50;10.75
72467;PMS3003;60626;43.582;1.470;2023-01-30T10:30:26;6.75;6.75;5.50
72467;PMS3003;60626;43.582;1.470;2023-01-30T10:32:57;15.50;14.75;10.75
72467;PMS3003;60626;43.582;1.470;2023-01-30T10:35:30;14.75;14.75;11.00
72467;PMS3003;60626;43.582;1.470;2023-01-30T10:38:19;13.75;13.75;9.00
72467;PMS3003;60626;43.582;1.470;2023-01-30T10:40:57;13.25;13.25;10.00
72467;PMS3003;60626;43.582;1.470;2023-01-30T10:43:44;13.75;13.75;9.50
72467;PMS3003;60626;43.582;1.470;2023-01-30T10:49:07;15.00;14.75;11.00
72467;PMS3003;60626;43.582;1.470;2023-01-30T10:52:23;14.50;14.50;10.75
72467;PMS3003;60626;43.582;1.470;2023-01-30T10:54:37;13.25;12.50;10.00
72467;PMS3003;60626;43.582;1.470;2023-01-30T10:59:49;15.75;13.75;10.00
72467;PMS3003;60626;43.582;1.470;2023-01-30T11:02:25;14.25;14.25;10.50
72467;PMS3003;60626;43.582;1.470;2023-01-30T11:05:17;16.75;14.75;11.00
72467;PMS3003;60626;43.582;1.470;2023-01-30T11:14:20;17.75;15.75;11.50
72467;PMS3003;60626;43.582;1.470;2023-01-30T11:16:47;17.00;15.25;8.00
72467;PMS3003;60626;43.582;1.470;2023-01-30T11:19:17;15.25;15.25;10.50
72467;PMS3003;60626;43.582;1.470;2023-01-30T11:21:49;15.00;15.00;10.25
72467;PMS3003;60626;43.582;1.470;2023-01-30T11:24:22;13.00;13.00;10.75
72467;PMS3003;60626;43.582;1.470;2023-01-30T11:26:55;13.50;12.75;10.00
72467;PMS3003;60626;43.582;1.470;2023-01-30T11:29:36;13.25;11.75;8.25
72467;PMS3003;60626;43.582;1.470;2023-01-30T11:32:05;13.25;13.25;10.00
72467;PMS3003;60626;43.582;1.470;2023-01-30T11:35:10;14.50;14.50;10.75
72467;PMS3003;60626;43.582;1.470;2023-01-30T11:37:48;14.00;12.25;10.00
72467;PMS3003;60626;43.582;1.470;2023-01-30T11:43:13;14.25;13.75;9.50
72467;PMS3003;60626;43.582;1.470;2023-01-30T11:45:40;15.50;15.25;10.50
72467;PMS3003;60626;43.582;1.470;2023-01-30T11:48:14;16.00;13.00;9.25
72467;PMS3003;60626;43.582;1.470;2023-01-30T11:51:06;15.00;15.00;11.00
72467;PMS3003;60626;43.582;1.470;2023-01-30T11:53:49;17.50;14.00;11.25
72467;PMS3003;60626;43.582;1.470;2023-01-30T11:56:37;14.75;13.25;9.25
72467;PMS3003;60626;43.582;1.470;2023-01-30T11:59:22;9.50;9.50;9.00
72467;PMS3003;60626;43.582;1.470;2023-01-30T12:02:00;13.50;13.50;10.50
72467;PMS3003;60626;43.582;1.470;2023-01-30T12:04:51;13.00;13.00;10.00
72467;PMS3003;60626;43.582;1.470;2023-01-30T12:07:22;14.00;13.00;10.25
72467;PMS3003;60626;43.582;1.470;2023-01-30T12:09:51;14.75;14.75;9.25
72467;PMS3003;60626;43.582;1.470;2023-01-30T12:12:25;14.00;14.00;10.75
72467;PMS3003;60626;43.582;1.470;2023-01-30T12:14:52;12.50;12.50;9.50
72467;PMS3003;60626;43.582;1.470;2023-01-30T12:17:26;13.50;13.50;9.00
72467;PMS3003;60626;43.582;1.470;2023-01-30T12:20:10;19.50;14.50;10.50
72467;PMS3003;60626;43.582;1.470;2023-01-30T12:26:05;20.00;15.25;10.25
72467;PMS3003;60626;43.582;1.470;2023-01-30T12:31:42;14.00;13.00;8.00
72467;PMS3003;60626;43.582;1.470;2023-01-30T12:34:12;14.50;13.25;8.75
72467;PMS3003;60626;43.582;1.470;2023-01-30T12:45:57;14.75;14.50;10.50
72467;PMS3003;60626;43.582;1.470;2023-01-30T12:49:18;16.75;15.50;10.00
72467;PMS3003;60626;43.582;1.470;2023-01-30T12:51:51;13.25;13.25;8.00
72467;PMS3003;60626;43.582;1.470;2023-01-30T12:54:41;15.75;14.00;10.00
72467;PMS3003;60626;43.582;1.470;2023-01-30T12:57:25;13.75;12.25;9.00
72467;PMS3003;60626;43.582;1.470;2023-01-30T13:00:03;16.75;15.50;10.25
72467;PMS3003;60626;43.582;1.470;2023-01-30T13:03:17;11.00;11.00;9.25
72467;PMS3003;60626;43.582;1.470;2023-01-30T13:05:42;14.50;12.50;10.25
72467;PMS3003;60626;43.582;1.470;2023-01-30T13:08:21;12.50;12.50;10.00
72467;PMS3003;60626;43.582;1.470;2023-01-30T13:19:20;15.75;14.00;11.25
72467;PMS3003;60626;43.582;1.470;2023-01-30T13:25:41;15.00;13.00;9.00
72467;PMS3003;60626;43.582;1.470;2023-01-30T13:28:00;14.75;13.50;10.25
72467;PMS3003;60626;43.582;1.470;2023-01-30T13:30:34;13.75;13.75;9.00
72467;PMS3003;60626;43.582;1.470;2023-01-30T13:33:07;16.00;14.50;10.00
72467;PMS3003;60626;43.582;1.470;2023-01-30T13:35:43;12.50;12.50;9.00
72467;PMS3003;60626;43.582;1.470;2023-01-30T13:38:18;18.50;16.75;12.75
72467;PMS3003;60626;43.582;1.470;2023-01-30T13:40:48;17.00;14.25;10.25
72467;PMS3003;60626;43.582;1.470;2023-01-30T13:43:27;16.25;15.25;9.75
72467;PMS3003;60626;43.582;1.470;2023-01-30T13:46:00;15.00;15.00;11.25
72467;PMS3003;60626;43.582;1.470;2023-01-30T13:48:35;14.00;13.50;11.00
72467;PMS3003;60626;43.582;1.470;2023-01-30T13:54:32;16.50;15.00;11.00
72467;PMS3003;60626;43.582;1.470;2023-01-30T14:02:19;14.25;14.25;11.00
72467;PMS3003;60626;43.582;1.470;2023-01-30T14:04:51;15.00;14.25;9.00
72467;PMS3003;60626;43.582;1.470;2023-01-30T14:07:26;17.50;16.00;10.00
72467;PMS3003;60626;43.582;1.470;2023-01-30T14:12:42;13.50;13.50;10.00
72467;PMS3003;60626;43.582;1.470;2023-01-30T14:20:30;20.00;17.25;12.00
72467;PMS3003;60626;43.582;1.470;2023-01-30T14:22:58;16.00;14.25;10.00
72467;PMS3003;60626;43.582;1.470;2023-01-30T14:25:47;16.25;14.50;10.75
72467;PMS3003;60626;43.582;1.470;2023-01-30T14:30:49;18.50;17.00;11.00
72467;PMS3003;60626;43.582;1.470;2023-01-30T14:38:19;19.25;17.50;10.00
72467;PMS3003;60626;43.582;1.470;2023-01-30T14:46:06;17.75;17.75;12.75
72467;PMS3003;60626;43.582;1.470;2023-01-30T14:48:59;16.50;15.50;10.50
72467;PMS3003;60626;43.582;1.470;2023-01-30T14:54:08;18.50;15.00;11.00
72467;PMS3003;60626;43.582;1.470;2023-01-30T14:56:53;17.25;15.75;10.25
72467;PMS3003;60626;43.582;1.470;2023-01-30T14:59:34;13.75;13.75;11.75
72467;PMS3003;60626;43.582;1.470;2023-01-30T15:02:57;20.75;16.25;10.50
72467;PMS3003;60626;43.582;1.470;2023-01-30T15:05:28;18.75;16.50;12.00
72467;PMS3003;60626;43.582;1.470;2023-01-30T15:13:48;18.00;16.25;10.75
72467;PMS3003;60626;43.582;1.470;2023-01-30T15:24:45;14.25;14.25;11.50
72467;PMS3003;60626;43.582;1.470;2023-01-30T15:27:56;18.50;15.25;11.25
72467;PMS3003;60626;43.582;1.470;2023-01-30T15:33:23;14.75;14.75;10.25
72467;PMS3003;60626;43.582;1.470;2023-01-30T15:35:57;15.00;15.00;10.25
72467;PMS3003;60626;43.582;1.470;2023-01-30T15:40:53;15.00;14.00;11.50
72467;PMS3003;60626;43.582;1.470;2023-01-30T15:51:49;10.50;10.50;6.25
72467;PMS3003;60626;43.582;1.470;2023-01-30T15:54:18;17.25;16.00;11.50
72467;PMS3003;60626;43.582;1.470;2023-01-30T15:56:48;17.25;15.50;11.25
72467;PMS3003;60626;43.582;1.470;2023-01-30T15:59:35;19.75;16.00;11.00
72467;PMS3003;60626;43.582;1.470;2023-01-30T16:02:06;15.25;15.25;11.00
72467;PMS3003;60626;43.582;1.470;2023-01-30T16:04:39;19.75;15.25;10.50
72467;PMS3003;60626;43.582;1.470;2023-01-30T16:07:22;18.75;15.00;9.75
72467;PMS3003;60626;43.582;1.470;2023-01-30T16:09:54;17.50;16.00;11.00
72467;PMS3003;60626;43.582;1.470;2023-01-30T16:12:42;19.25;17.25;12.00
72467;PMS3003;60626;43.582;1.470;2023-01-30T16:15:16;12.25;12.25;9.00
72467;PMS3003;60626;43.582;1.470;2023-01-30T16:17:48;17.50;13.75;10.00
72467;PMS3003;60626;43.582;1.470;2023-01-30T16:20:44;17.75;14.00;10.00
72467;PMS3003;60626;43.582;1.470;2023-01-30T16:23:28;20.25;16.50;11.75
72467;PMS3003;60626;43.582;1.470;2023-01-30T16:26:12;15.75;15.75;10.50
72467;PMS3003;60626;43.582;1.470;2023-01-30T16:28:43;14.75;13.00;10.50
72467;PMS3003;60626;43.582;1.470;2023-01-30T16:31:10;18.50;17.25;11.00
72467;PMS3003;60626;43.582;1.470;2023-01-30T16:33:37;19.25;14.25;10.25
72467;PMS3003;60626;43.582;1.470;2023-01-30T16:36:05;21.00;17.25;12.25
72467;PMS3003;60626;43.582;1.470;2023-01-30T16:38:49;18.50;16.25;12.75
72467;PMS3003;60626;43.582;1.470;2023-01-30T16:46:48;20.75;16.00;11.25
72467;PMS3003;60626;43.582;1.470;2023-01-30T16:52:10;19.50;17.00;11.25
72467;PMS3003;60626;43.582;1.470;2023-01-30T16:54:39;17.75;16.25;12.25
72467;PMS3003;60626;43.582;1.470;2023-01-30T16:57:16;15.50;15.25;11.00
72467;PMS3003;60626;43.582;1.470;2023-01-30T16:59:50;21.25;18.25;12.00
72467;PMS3003;60626;43.582;1.470;2023-01-30T17:02:23;18.75;16.25;11.00
72467;PMS3003;60626;43.582;1.470;2023-01-30T17:05:09;19.50;17.75;11.50